createdAt,value
2024-02-13T00:00:10.189Z,33.05
2024-02-13T00:02:38.398Z,38.40
2024-02-13T00:05:09.416Z,34.83
2024-02-13T00:07:37.622Z,23.92
2024-02-13T00:10:05.968Z,23.60
2024-02-13T00:12:32.458Z,24.63
2024-02-13T00:14:59.697Z,26.38
2024-02-13T00:17:26.494Z,26.60
2024-02-13T00:19:53.767Z,24.83
2024-02-13T00:22:20.818Z,25.60
2024-02-13T00:24:49.217Z,27.48
2024-02-13T00:27:16.449Z,22.73
2024-02-13T00:29:45.835Z,21.50
2024-02-13T00:32:13.612Z,20.13
2024-02-13T00:34:41.169Z,20.90
2024-02-13T00:37:09.365Z,20.17
2024-02-13T00:39:35.907Z,20.25
2024-02-13T00:42:04.015Z,19.45
2024-02-13T00:44:31.027Z,21.23
2024-02-13T00:46:58.514Z,22.20
2024-02-13T00:49:25.093Z,21.90
2024-02-13T00:51:51.661Z,20.38
2024-02-13T00:54:18.268Z,20.27
2024-02-13T00:56:44.977Z,23.20
2024-02-13T00:59:11.811Z,23.15
2024-02-13T01:01:39.032Z,22.98
2024-02-13T01:04:07.549Z,25.02
2024-02-13T01:06:34.974Z,24.38
2024-02-13T01:09:04.322Z,25.40
2024-02-13T01:11:30.904Z,25.80
2024-02-13T01:13:57.600Z,26.15
2024-02-13T01:16:26.652Z,27.23
2024-02-13T01:18:53.566Z,25.65
2024-02-13T01:21:20.273Z,26.40
2024-02-13T01:23:47.445Z,25.08
2024-02-13T01:26:14.822Z,27.05
2024-02-13T01:28:41.724Z,25.20
2024-02-13T01:31:08.353Z,30.58
2024-02-13T01:33:35.056Z,28.48
2024-02-13T01:36:02.864Z,31.90
2024-02-13T01:38:31.344Z,36.05
2024-02-13T01:40:58.216Z,28.48
2024-02-13T01:43:26.324Z,38.22
2024-02-13T01:45:54.008Z,33.25
2024-02-13T01:48:22.451Z,35.03
2024-02-13T01:50:50.563Z,33.90
2024-02-13T01:53:19.683Z,38.35
2024-02-13T01:55:47.076Z,33.10
2024-02-13T01:58:13.859Z,36.90
2024-02-13T02:00:40.588Z,35.63
2024-02-13T02:03:10.045Z,33.42
2024-02-13T02:05:36.657Z,33.00
2024-02-13T02:08:03.457Z,30.25
2024-02-13T02:10:29.890Z,33.42
2024-02-13T02:12:56.404Z,31.33
2024-02-13T02:15:22.978Z,31.63
2024-02-13T02:17:56.289Z,32.38
2024-02-13T02:20:24.015Z,33.72
2024-02-13T02:22:51.522Z,31.77
2024-02-13T02:25:19.773Z,31.85
2024-02-13T02:27:46.723Z,33.33
2024-02-13T02:30:14.566Z,32.25
2024-02-13T02:32:42.046Z,28.80
2024-02-13T02:35:30.878Z,29.40
2024-02-13T02:37:58.995Z,30.38
2024-02-13T02:40:25.521Z,33.00
2024-02-13T02:42:56.659Z,28.55
2024-02-13T02:45:23.416Z,29.33
2024-02-13T02:47:50.947Z,29.38
2024-02-13T02:50:17.643Z,30.60
2024-02-13T02:52:44.512Z,32.30
2024-02-13T02:55:11.435Z,31.42
2024-02-13T02:57:39.295Z,32.85
2024-02-13T03:00:13.874Z,42.42
2024-02-13T03:02:43.016Z,31.55
2024-02-13T03:05:12.879Z,28.15
2024-02-13T03:07:39.575Z,34.85
2024-02-13T03:10:11.531Z,34.50
2024-02-13T03:12:39.076Z,32.30
2024-02-13T03:15:05.929Z,31.23
2024-02-13T03:17:32.966Z,32.90
2024-02-13T03:20:02.009Z,33.20
2024-02-13T03:22:29.244Z,35.72
2024-02-13T03:24:57.901Z,34.83
2024-02-13T03:27:24.479Z,33.10
2024-02-13T03:29:51.032Z,34.83
2024-02-13T03:32:17.854Z,34.08
2024-02-13T03:34:44.483Z,35.58
2024-02-13T03:37:10.986Z,35.13
2024-02-13T03:39:37.483Z,36.10
2024-02-13T03:42:04.259Z,32.97
2024-02-13T03:44:30.798Z,39.30
2024-02-13T03:46:57.291Z,37.35
2024-02-13T03:49:23.996Z,35.13
2024-02-13T03:51:50.520Z,34.25
2024-02-13T03:54:17.138Z,38.58
2024-02-13T03:56:44.626Z,34.30
2024-02-13T03:59:14.031Z,37.38
2024-02-13T04:01:42.182Z,31.63
2024-02-13T04:04:09.477Z,33.38
2024-02-13T04:06:36.764Z,30.55
2024-02-13T04:09:04.653Z,31.17
2024-02-13T04:11:31.615Z,32.58
2024-02-13T04:13:58.680Z,30.13
2024-02-13T04:16:25.287Z,30.77
2024-02-13T04:18:54.396Z,36.13
2024-02-13T04:21:21.459Z,35.95
2024-02-13T04:23:51.654Z,34.10
2024-02-13T04:26:30.972Z,34.15
2024-02-13T04:29:03.406Z,36.00
2024-02-13T04:31:31.905Z,36.08
2024-02-13T04:33:58.756Z,33.70
2024-02-13T04:36:25.539Z,37.75
2024-02-13T04:38:52.208Z,37.15
2024-02-13T04:41:21.613Z,38.30
2024-02-13T04:43:48.665Z,33.60
2024-02-13T04:46:15.296Z,37.35
2024-02-13T04:49:16.345Z,38.45
2024-02-13T04:51:44.419Z,35.38
2024-02-13T04:54:10.897Z,34.33
2024-02-13T04:56:37.618Z,40.00
2024-02-13T04:59:16.217Z,38.83
2024-02-13T05:01:46.406Z,39.05
2024-02-13T05:05:50.967Z,34.50
2024-02-13T05:07:20.861Z,38.25
2024-02-13T05:09:47.889Z,39.40
2024-02-13T05:12:15.911Z,36.40
2024-02-13T05:14:43.167Z,40.97
2024-02-13T05:17:09.768Z,40.67
2024-02-13T05:19:36.197Z,41.13
2024-02-13T05:22:02.715Z,41.88
2024-02-13T05:24:30.133Z,39.33
2024-02-13T05:26:56.981Z,40.72
2024-02-13T05:29:23.690Z,42.55
2024-02-13T05:31:52.347Z,40.88
2024-02-13T05:34:18.957Z,43.78
2024-02-13T05:36:45.652Z,40.10
2024-02-13T05:39:12.101Z,44.30
2024-02-13T05:41:38.865Z,42.75
2024-02-13T05:44:05.428Z,41.40
2024-02-13T05:46:32.000Z,43.67
2024-02-13T05:49:01.350Z,47.22
2024-02-13T05:51:28.308Z,48.30
2024-02-13T05:53:54.919Z,46.80
2024-02-13T05:56:27.219Z,42.95
2024-02-13T05:58:56.974Z,44.55
2024-02-13T06:02:20.146Z,44.63
2024-02-13T06:04:46.716Z,45.67
2024-02-13T06:07:14.911Z,44.35
2024-02-13T06:13:30.349Z,43.50
2024-02-13T06:15:56.878Z,44.65
2024-02-13T06:18:24.589Z,42.65
2024-02-13T06:20:51.739Z,45.97
2024-02-13T06:23:18.647Z,43.83
2024-02-13T06:25:45.330Z,44.00
2024-02-13T06:28:12.106Z,45.25
2024-02-13T06:30:40.488Z,46.13
2024-02-13T06:33:07.245Z,46.97
2024-02-13T06:35:34.721Z,52.08
2024-02-13T06:38:01.246Z,49.92
2024-02-13T06:40:27.808Z,50.30
2024-02-13T06:42:54.371Z,51.65
2024-02-13T06:45:21.084Z,48.45
2024-02-13T06:47:47.621Z,57.65
2024-02-13T06:50:14.584Z,59.72
2024-02-13T06:52:42.320Z,48.50
2024-02-13T06:55:09.747Z,50.88
2024-02-13T06:57:37.151Z,49.47
2024-02-13T07:00:08.759Z,56.47
2024-02-13T07:02:36.322Z,50.42
2024-02-13T07:05:03.017Z,54.20
2024-02-13T07:08:04.042Z,50.35
2024-02-13T07:10:30.967Z,51.25
2024-02-13T07:13:00.352Z,49.22
2024-02-13T07:15:26.919Z,47.67
2024-02-13T07:18:00.015Z,45.30
2024-02-13T07:20:28.183Z,45.75
2024-02-13T07:22:54.970Z,43.42
2024-02-13T07:25:21.500Z,41.88
2024-02-13T07:27:50.228Z,43.78
2024-02-13T07:30:17.062Z,42.50
2024-02-13T07:32:46.032Z,40.00
2024-02-13T07:35:12.760Z,38.55
2024-02-13T07:37:39.226Z,40.33
2024-02-13T07:40:06.344Z,39.72
2024-02-13T07:42:32.770Z,44.13
2024-02-13T07:45:00.315Z,45.00
2024-02-13T07:47:27.993Z,42.90
2024-02-13T07:49:56.135Z,40.83
2024-02-13T07:52:22.679Z,40.33
2024-02-13T07:54:49.296Z,42.55
2024-02-13T07:57:17.339Z,39.38
2024-02-13T07:59:44.893Z,44.28
2024-02-13T08:02:12.022Z,40.10
2024-02-13T08:04:39.482Z,40.72
2024-02-13T08:07:08.850Z,42.83
2024-02-13T08:09:35.868Z,40.85
2024-02-13T08:12:04.148Z,42.38
2024-02-13T08:14:31.783Z,39.53
2024-02-13T08:16:59.743Z,45.35
2024-02-13T08:19:27.441Z,42.10
2024-02-13T08:21:54.001Z,46.38
2024-02-13T08:24:22.072Z,42.58
2024-02-13T08:26:49.536Z,37.60
2024-02-13T08:29:16.266Z,39.88
2024-02-13T08:31:42.793Z,36.28
2024-02-13T08:34:09.482Z,39.15
2024-02-13T08:36:38.228Z,36.92
2024-02-13T08:39:04.892Z,37.08
2024-02-13T08:41:32.912Z,38.50
2024-02-13T08:44:00.217Z,39.13
2024-02-13T08:46:26.732Z,37.33
2024-02-13T08:48:53.570Z,42.85
2024-02-13T08:51:20.366Z,41.97
2024-02-13T08:53:47.961Z,41.67
2024-02-13T08:56:14.951Z,39.10
2024-02-13T08:58:42.082Z,38.25
2024-02-13T09:01:09.566Z,41.10
2024-02-13T09:03:36.167Z,37.15
2024-02-13T09:06:06.082Z,36.60
2024-02-13T09:08:34.220Z,37.22
2024-02-13T09:11:00.740Z,42.88
2024-02-13T09:13:29.844Z,35.78
2024-02-13T09:15:56.609Z,38.50
2024-02-13T09:18:24.273Z,38.05
2024-02-13T09:20:51.124Z,39.80
2024-02-13T09:23:21.150Z,37.25
2024-02-13T09:25:52.696Z,43.25
2024-02-13T09:30:48.890Z,36.88
2024-02-13T09:33:15.942Z,35.92
2024-02-13T09:35:42.602Z,34.90
2024-02-13T09:38:09.323Z,33.72
2024-02-13T09:40:35.961Z,34.67
2024-02-13T09:43:02.858Z,34.42
2024-02-13T09:45:30.632Z,35.92
2024-02-13T09:48:07.619Z,32.05
2024-02-13T09:50:38.405Z,34.00
2024-02-13T09:53:15.745Z,33.75
2024-02-13T09:55:44.361Z,30.92
2024-02-13T09:58:11.726Z,35.08
2024-02-13T10:00:38.287Z,30.77
2024-02-13T10:03:07.328Z,32.97
2024-02-13T10:05:34.187Z,29.48
2024-02-13T10:08:01.003Z,29.27
2024-02-13T10:10:27.601Z,34.58
2024-02-13T10:12:56.309Z,32.38
2024-02-13T10:15:55.983Z,31.23
2024-02-13T10:18:26.380Z,34.30
2024-02-13T10:20:53.028Z,30.42
2024-02-13T10:23:25.595Z,28.13
2024-02-13T10:25:53.696Z,27.25
2024-02-13T10:28:20.720Z,27.38
2024-02-13T10:30:53.940Z,29.15
2024-02-13T10:33:20.784Z,30.27
2024-02-13T10:35:54.056Z,27.02
2024-02-13T10:38:24.669Z,27.85
2024-02-13T10:40:53.218Z,32.13
2024-02-13T10:43:20.546Z,27.95
2024-02-13T10:45:50.305Z,29.27
2024-02-13T10:48:26.538Z,27.45
2024-02-13T10:50:55.106Z,29.10
2024-02-13T10:53:22.469Z,33.05
2024-02-13T10:55:54.186Z,26.85
2024-02-13T10:58:28.279Z,25.50
2024-02-13T11:01:00.353Z,25.90
2024-02-13T11:03:27.342Z,28.00
2024-02-13T11:05:54.224Z,26.13
2024-02-13T11:08:21.430Z,26.80
2024-02-13T11:10:47.999Z,23.98
2024-02-13T11:13:19.543Z,25.70
2024-02-13T11:15:47.559Z,25.10
2024-02-13T11:18:14.701Z,22.33
2024-02-13T11:20:43.509Z,21.67
2024-02-13T11:23:17.313Z,22.00
2024-02-13T11:25:57.294Z,23.25
2024-02-13T11:28:23.788Z,23.75
2024-02-13T11:30:50.670Z,22.08
2024-02-13T11:33:21.328Z,20.17
2024-02-13T11:35:56.125Z,21.52
2024-02-13T11:38:27.259Z,22.27
2024-02-13T11:40:56.652Z,24.85
2024-02-13T11:43:30.250Z,22.95
2024-02-13T11:45:58.507Z,24.27
2024-02-13T11:48:31.658Z,20.60
2024-02-13T11:51:00.956Z,20.83
2024-02-13T11:53:29.452Z,22.83
2024-02-13T11:55:56.543Z,22.27
2024-02-13T11:58:24.103Z,20.65
2024-02-13T12:01:01.679Z,21.80
2024-02-13T12:03:32.114Z,21.90
2024-02-13T12:06:00.266Z,20.67
2024-02-13T12:08:29.078Z,21.42
2024-02-13T12:10:58.940Z,22.63
2024-02-13T12:13:25.857Z,20.77
2024-02-13T12:15:52.879Z,20.10
2024-02-13T12:18:19.640Z,21.00
2024-02-13T12:20:48.248Z,21.38
2024-02-13T12:23:17.232Z,20.20
2024-02-13T12:25:47.044Z,21.08
2024-02-13T12:28:14.386Z,18.13
2024-02-13T12:30:51.732Z,21.65
2024-02-13T12:33:24.303Z,17.77
2024-02-13T12:36:06.905Z,18.73
2024-02-13T12:38:34.504Z,19.35
2024-02-13T12:41:01.089Z,20.23
2024-02-13T12:43:30.578Z,23.45
2024-02-13T12:46:03.736Z,18.48
2024-02-13T12:48:37.787Z,19.55
2024-02-13T12:51:10.579Z,19.60
2024-02-13T12:53:38.298Z,19.65
2024-02-13T12:56:05.684Z,19.08
2024-02-13T12:58:33.795Z,18.55
2024-02-13T13:01:16.931Z,16.35
2024-02-13T13:03:48.138Z,20.40
2024-02-13T13:06:15.598Z,19.00
2024-02-13T13:08:43.507Z,17.92
2024-02-13T13:11:10.774Z,17.73
2024-02-13T13:13:39.957Z,19.48
2024-02-13T13:16:08.281Z,17.58
2024-02-13T13:18:40.021Z,16.30
2024-02-13T13:21:07.010Z,14.68
2024-02-13T13:23:34.825Z,16.10
2024-02-13T13:26:02.353Z,17.27
2024-02-13T13:28:30.751Z,15.65
2024-02-13T13:31:02.078Z,16.05
2024-02-13T13:36:00.687Z,14.77
2024-02-13T13:38:29.851Z,15.00
2024-02-13T13:41:02.230Z,15.05
2024-02-13T13:43:30.146Z,15.48
2024-02-13T13:45:59.104Z,13.48
2024-02-13T13:48:28.557Z,17.40
2024-02-13T13:50:55.464Z,15.45
2024-02-13T13:53:24.228Z,15.40
2024-02-13T13:55:50.730Z,15.60
2024-02-13T13:58:17.536Z,16.55
2024-02-13T14:00:44.699Z,15.00
2024-02-13T14:03:14.600Z,12.85
2024-02-13T14:05:41.230Z,16.38
2024-02-13T14:08:10.364Z,14.43
2024-02-13T14:10:38.237Z,16.05
2024-02-13T14:13:05.430Z,15.57
2024-02-13T14:15:35.786Z,13.38
2024-02-13T14:18:03.451Z,17.30
2024-02-13T14:20:38.755Z,14.00
2024-02-13T14:23:06.435Z,15.60
2024-02-13T14:25:33.206Z,16.15
2024-02-13T14:27:59.722Z,16.10
2024-02-13T14:30:26.991Z,16.58
2024-02-13T14:32:55.727Z,15.10
2024-02-13T14:35:23.050Z,15.93
2024-02-13T14:37:52.981Z,16.58
2024-02-13T14:40:21.898Z,15.85
2024-02-13T14:42:48.942Z,17.52
2024-02-13T14:45:16.544Z,15.52
2024-02-13T14:47:43.547Z,14.82
2024-02-13T14:50:11.888Z,14.32
2024-02-13T14:52:40.112Z,15.48
2024-02-13T14:55:10.676Z,14.50
2024-02-13T14:57:44.064Z,13.73
2024-02-13T15:00:21.602Z,15.20
2024-02-13T15:02:49.119Z,13.82
2024-02-13T15:05:17.116Z,15.77
2024-02-13T15:07:45.651Z,15.32
2024-02-13T15:10:15.526Z,15.27
2024-02-13T15:12:42.016Z,15.55
2024-02-13T15:15:11.566Z,16.27
2024-02-13T15:17:38.209Z,15.40
2024-02-13T15:20:08.153Z,15.82
2024-02-13T15:22:36.450Z,17.00
2024-02-13T15:25:04.454Z,15.98
2024-02-13T15:27:32.098Z,16.73
2024-02-13T15:29:58.618Z,16.95
2024-02-13T15:32:25.345Z,15.35
2024-02-13T15:34:55.021Z,16.58
2024-02-13T15:37:40.240Z,16.08
2024-02-13T15:40:25.555Z,15.90
2024-02-13T15:43:10.471Z,14.00
2024-02-13T15:45:55.268Z,20.65
2024-02-13T15:48:21.873Z,15.90
2024-02-13T15:50:48.436Z,16.60
2024-02-13T15:53:15.492Z,16.67
2024-02-13T15:55:42.420Z,17.30
2024-02-13T15:58:08.872Z,17.65
2024-02-13T16:00:35.333Z,16.17
2024-02-13T16:03:04.015Z,17.38
2024-02-13T16:05:31.307Z,16.70
2024-02-13T16:08:00.847Z,16.55
2024-02-13T16:10:30.394Z,18.30
2024-02-13T16:12:57.430Z,16.17
2024-02-13T16:15:24.663Z,17.67
2024-02-13T16:17:51.455Z,17.65
2024-02-13T16:20:18.021Z,19.88
2024-02-13T16:22:47.463Z,18.27
2024-02-13T16:25:14.738Z,17.55
2024-02-13T16:27:41.590Z,16.55
2024-02-13T16:30:11.656Z,17.35
2024-02-13T16:32:40.750Z,19.95
2024-02-13T16:35:10.352Z,27.05
2024-02-13T16:37:37.880Z,23.42
2024-02-13T16:40:06.460Z,22.75
2024-02-13T16:42:34.016Z,22.33
2024-02-13T16:45:00.730Z,23.35
2024-02-13T16:47:27.446Z,25.83
2024-02-13T16:49:58.831Z,28.30
2024-02-13T16:52:27.846Z,24.92
2024-02-13T16:54:54.314Z,24.52
2024-02-13T16:57:20.883Z,21.40
2024-02-13T16:59:47.349Z,23.23
2024-02-13T17:02:16.038Z,24.33
2024-02-13T17:04:43.561Z,20.23
2024-02-13T17:07:11.027Z,22.35
2024-02-13T17:09:37.599Z,23.88
2024-02-13T17:12:04.338Z,20.73
2024-02-13T17:14:31.716Z,23.95
2024-02-13T17:16:58.439Z,25.33
2024-02-13T17:19:25.975Z,27.63
2024-02-13T17:21:52.763Z,28.15
2024-02-13T17:24:19.232Z,25.20
2024-02-13T17:26:45.754Z,24.73
2024-02-13T17:29:12.618Z,24.90
2024-02-13T17:31:39.075Z,26.02
2024-02-13T17:34:05.789Z,25.05
2024-02-13T17:36:32.614Z,24.52
2024-02-13T17:38:59.165Z,24.40
2024-02-13T17:41:28.606Z,26.50
2024-02-13T17:43:59.210Z,26.05
2024-02-13T17:46:26.962Z,28.95
2024-02-13T17:48:53.792Z,37.88
2024-02-13T17:51:20.380Z,35.30
2024-02-13T17:53:47.144Z,34.08
2024-02-13T17:56:13.735Z,33.05
2024-02-13T17:58:40.280Z,39.85
2024-02-13T18:01:06.928Z,37.40
2024-02-13T18:03:33.647Z,34.53
2024-02-13T18:06:02.805Z,33.40
2024-02-13T18:08:29.546Z,33.08
2024-02-13T18:10:56.153Z,33.92
2024-02-13T18:13:23.393Z,29.73
2024-02-13T18:15:51.194Z,34.38
2024-02-13T18:18:19.254Z,30.90
2024-02-13T18:20:46.650Z,28.60
2024-02-13T18:23:13.893Z,28.15
2024-02-13T18:25:40.485Z,29.73
2024-02-13T18:28:07.277Z,29.48
2024-02-13T18:30:33.830Z,32.00
2024-02-13T18:33:00.566Z,29.00
2024-02-13T18:35:28.151Z,28.42
2024-02-13T18:37:54.797Z,32.22
2024-02-13T18:40:21.889Z,29.92
2024-02-13T18:42:48.462Z,38.40
2024-02-13T18:45:15.059Z,43.13
2024-02-13T18:47:45.285Z,43.35
2024-02-13T18:50:12.097Z,48.07
2024-02-13T18:52:38.654Z,45.38
2024-02-13T18:55:09.833Z,47.15
2024-02-13T19:00:07.388Z,37.20
2024-02-13T19:02:34.663Z,37.60
2024-02-13T19:05:01.539Z,34.47
2024-02-13T19:07:28.352Z,31.83
2024-02-13T19:09:54.952Z,26.98
2024-02-13T19:12:21.410Z,25.80
2024-02-13T19:14:47.924Z,24.30
2024-02-13T19:17:16.247Z,30.80
2024-02-13T19:19:42.985Z,26.58
2024-02-13T19:22:09.486Z,26.65
2024-02-13T19:24:36.019Z,26.70
2024-02-13T19:27:02.962Z,26.92
2024-02-13T19:29:29.551Z,25.17
2024-02-13T19:31:56.030Z,24.63
2024-02-13T19:34:24.790Z,25.35
2024-02-13T19:36:53.156Z,26.50
2024-02-13T19:39:21.144Z,33.40
2024-02-13T19:41:47.660Z,29.73
2024-02-13T19:44:15.173Z,30.48
2024-02-13T19:46:42.609Z,30.92
2024-02-13T19:49:11.457Z,33.70
2024-02-13T19:51:41.798Z,29.77
2024-02-13T19:54:08.396Z,27.52
2024-02-13T19:56:34.920Z,29.33
2024-02-13T19:59:01.460Z,27.45
2024-02-13T20:01:28.089Z,25.27
2024-02-13T20:03:54.777Z,24.58
2024-02-13T20:06:21.869Z,21.95
2024-02-13T20:08:48.556Z,24.58
2024-02-13T20:11:17.557Z,31.15
2024-02-13T20:13:45.068Z,30.92
2024-02-13T20:16:11.559Z,31.00
2024-02-13T20:18:38.312Z,31.90
2024-02-13T20:21:05.330Z,31.48
2024-02-13T20:23:36.681Z,29.63
2024-02-13T20:26:03.273Z,28.58
2024-02-13T20:28:29.737Z,30.48
2024-02-13T20:30:56.366Z,26.02
2024-02-13T20:33:23.714Z,26.85
2024-02-13T20:35:59.921Z,26.52
2024-02-13T20:38:26.544Z,27.48
2024-02-13T20:40:56.238Z,26.17
2024-02-13T20:43:27.956Z,28.58
2024-02-13T20:45:54.694Z,28.83
2024-02-13T20:48:23.041Z,26.30
2024-02-13T20:50:49.591Z,28.15
2024-02-13T20:53:16.168Z,32.30
2024-02-13T20:55:42.749Z,30.35
2024-02-13T20:58:10.433Z,30.13
2024-02-13T21:00:37.231Z,29.23
2024-02-13T21:03:04.626Z,31.30
2024-02-13T21:05:31.426Z,27.25
2024-02-13T21:07:58.915Z,26.35
2024-02-13T21:10:27.287Z,25.92
2024-02-13T21:12:54.164Z,26.48
2024-02-13T21:15:20.612Z,26.55
2024-02-13T21:17:47.078Z,26.55
2024-02-13T21:20:15.094Z,27.88
2024-02-13T21:23:00.565Z,30.92
2024-02-13T21:25:27.108Z,33.90
2024-02-13T21:27:53.609Z,30.10
2024-02-13T21:30:20.164Z,28.98
2024-02-13T21:32:47.688Z,26.92
2024-02-13T21:35:14.818Z,30.42
2024-02-13T21:37:42.380Z,30.40
2024-02-13T21:40:14.881Z,28.95
2024-02-13T21:42:42.405Z,33.08
2024-02-13T21:45:09.624Z,31.42
2024-02-13T21:47:41.951Z,34.83
2024-02-13T21:50:15.046Z,36.20
2024-02-13T21:52:42.010Z,36.53
2024-02-13T21:55:08.918Z,31.88
2024-02-13T21:57:35.416Z,35.42
2024-02-13T22:00:06.248Z,40.20
2024-02-13T22:02:36.791Z,38.35
2024-02-13T22:05:07.369Z,34.00
2024-02-13T22:07:35.211Z,36.60
2024-02-13T22:10:01.759Z,30.23
2024-02-13T22:12:28.265Z,34.08
2024-02-13T22:14:54.770Z,30.85
2024-02-13T22:17:21.336Z,23.60
2024-02-13T22:19:47.975Z,22.95
2024-02-13T22:22:14.462Z,19.20
2024-02-13T22:24:40.945Z,21.48
2024-02-13T22:27:07.718Z,26.88
2024-02-13T22:29:34.807Z,36.15
2024-02-13T22:32:01.353Z,33.53
2024-02-13T22:34:28.798Z,32.60
2024-02-13T22:36:55.443Z,31.42
2024-02-13T22:39:21.953Z,30.60
2024-02-13T22:41:48.587Z,26.42
2024-02-13T22:44:15.087Z,22.27
2024-02-13T22:46:41.849Z,21.10
2024-02-13T22:49:08.415Z,23.63
2024-02-13T22:51:35.031Z,23.45
2024-02-13T22:54:01.581Z,25.13
2024-02-13T22:56:28.125Z,21.73
2024-02-13T22:58:56.548Z,24.20
2024-02-13T23:01:24.891Z,24.75
2024-02-13T23:03:51.696Z,26.38
2024-02-13T23:06:18.418Z,23.95
2024-02-13T23:08:45.181Z,23.67
2024-02-13T23:11:11.807Z,22.13
2024-02-13T23:13:42.894Z,24.50
2024-02-13T23:16:12.603Z,21.55
2024-02-13T23:18:41.382Z,21.25
2024-02-13T23:21:08.247Z,20.40
2024-02-13T23:23:35.169Z,21.05
2024-02-13T23:26:02.294Z,18.60
2024-02-13T23:28:35.842Z,20.83
2024-02-13T23:31:10.725Z,21.48
2024-02-13T23:33:37.287Z,22.20
2024-02-13T23:36:04.207Z,21.27
2024-02-13T23:38:31.035Z,21.75
2024-02-13T23:40:57.650Z,21.27
2024-02-13T23:43:24.125Z,21.05
2024-02-13T23:45:50.632Z,21.85
2024-02-13T23:48:20.698Z,21.70
2024-02-13T23:50:47.370Z,18.52
2024-02-13T23:53:14.839Z,17.15
2024-02-13T23:55:41.431Z,17.55
2024-02-13T23:58:08.094Z,18.27
